Time;durP1;ratioP1;P1;durP2;ratioP2;P2;SDS_P1;SDS_P2;PMS_P1;PMS_P2;Temp;Humidity;BMP_temperature;BMP_pressure;BME280_temperature;BME280_humidity;BME280_pressure;Samples;Min_cycle;Max_cycle;Signal;HPM_P1;HPM_P2
2023/09/29 00:00:48;;;;;;;18.92;6.10;;;15.60;99.90;;;;;;4879312;29;20502;-76
2023/09/29 00:03:34;;;;;;;28.50;6.60;;;15.60;99.90;;;;;;4879071;29;20064;-79
2023/09/29 00:06:20;;;;;;;22.23;8.27;;;15.60;99.90;;;;;;4879013;29;20057;-78
2023/09/29 00:09:06;;;;;;;21.77;6.38;;;15.60;99.90;;;;;;4862202;29;20057;-79
2023/09/29 00:11:52;;;;;;;23.73;6.53;;;15.60;99.90;;;;;;4877466;29;20056;-77
2023/09/29 00:14:39;;;;;;;24.00;7.50;;;15.70;99.90;;;;;;4877172;29;20496;-78
2023/09/29 00:17:25;;;;;;;24.92;6.07;;;15.70;99.90;;;;;;4878286;29;20053;-75
2023/09/29 00:23:00;;;;;;;25.17;6.18;;;15.70;99.90;;;;;;4885739;29;20061;-76
2023/09/29 00:25:46;;;;;;;18.80;6.05;;;15.70;99.90;;;;;;4897514;29;20203;-76
2023/09/29 00:28:32;;;;;;;28.25;6.55;;;15.70;99.90;;;;;;4896924;29;20059;-78
2023/09/29 00:31:19;;;;;;;25.05;6.60;;;15.70;99.90;;;;;;4897403;29;20464;-76
2023/09/29 00:34:06;;;;;;;23.42;6.72;;;15.70;99.90;;;;;;4897383;29;20087;-76
2023/09/29 00:36:52;;;;;;;15.93;5.70;;;15.70;99.90;;;;;;4897234;29;20045;-75
2023/09/29 00:39:38;;;;;;;21.40;7.10;;;15.70;99.90;;;;;;4896667;29;20442;-80
2023/09/29 00:42:24;;;;;;;24.13;6.25;;;15.70;99.90;;;;;;4896723;29;20059;-75
2023/09/29 00:45:10;;;;;;;31.45;6.63;;;15.70;99.90;;;;;;4896634;29;20138;-75
2023/09/29 00:48:04;;;;;;;20.58;5.97;;;15.70;99.90;;;;;;4882879;29;20143;-78
2023/09/29 00:50:50;;;;;;;19.75;5.72;;;15.70;99.90;;;;;;4896588;29;20056;-77
2023/09/29 00:53:38;;;;;;;25.00;6.50;;;15.60;99.90;;;;;;4896114;29;20097;-76
2023/09/29 00:56:24;;;;;;;17.08;6.47;;;15.60;99.90;;;;;;4897723;28;20052;-81
2023/09/29 00:59:10;;;;;;;18.15;5.38;;;15.60;99.90;;;;;;4896371;29;20060;-78
2023/09/29 01:01:57;;;;;;;20.60;5.80;;;15.60;99.90;;;;;;4882980;29;20092;-80
2023/09/29 01:04:44;;;;;;;27.80;7.63;;;15.60;99.90;;;;;;4895992;29;20049;-80
2023/09/29 01:07:31;;;;;;;27.48;6.97;;;15.60;99.90;;;;;;4895682;29;20053;-79
2023/09/29 01:10:18;;;;;;;27.58;5.90;;;15.60;99.90;;;;;;4896451;29;20564;-74
2023/09/29 01:13:05;;;;;;;26.67;6.30;;;15.60;99.90;;;;;;4895940;29;20053;-78
2023/09/29 01:15:51;;;;;;;24.25;6.75;;;15.60;99.90;;;;;;4897114;29;20075;-78
2023/09/29 01:18:37;;;;;;;21.20;5.80;;;15.60;99.90;;;;;;4879410;29;20147;-76
2023/09/29 01:21:23;;;;;;;22.40;7.13;;;15.60;99.90;;;;;;4897028;29;20053;-80
2023/09/29 01:24:10;;;;;;;26.70;7.13;;;15.60;99.90;;;;;;4895310;29;20565;-80
2023/09/29 01:26:56;;;;;;;24.55;6.05;;;15.60;99.90;;;;;;4896924;29;20140;-79
2023/09/29 01:29:41;;;;;;;17.23;5.05;;;15.60;99.90;;;;;;4895664;29;20152;-78
2023/09/29 01:32:28;;;;;;;21.65;5.57;;;15.60;99.90;;;;;;4896106;29;20048;-75
2023/09/29 01:35:21;;;;;;;16.73;5.57;;;15.60;99.90;;;;;;4899501;29;20084;-80
2023/09/29 01:38:07;;;;;;;23.05;6.18;;;15.60;99.90;;;;;;4900041;29;20051;-80
2023/09/29 01:40:53;;;;;;;18.27;5.32;;;15.60;99.90;;;;;;4899894;29;20056;-80
2023/09/29 01:43:40;;;;;;;19.42;5.43;;;15.60;99.90;;;;;;4898080;29;20068;-79
2023/09/29 01:46:26;;;;;;;17.40;5.22;;;15.60;99.90;;;;;;4882872;29;20068;-79
2023/09/29 01:49:12;;;;;;;21.20;5.45;;;15.60;99.90;;;;;;4899175;29;20049;-75
2023/09/29 01:51:58;;;;;;;19.35;5.63;;;15.50;99.90;;;;;;4882386;29;20053;-75
2023/09/29 01:54:44;;;;;;;22.60;4.95;;;15.60;99.90;;;;;;4882396;29;20063;-75
2023/09/29 01:57:30;;;;;;;21.88;5.35;;;15.60;99.90;;;;;;4899862;29;20060;-74
2023/09/29 02:00:23;;;;;;;18.70;4.88;;;15.60;99.90;;;;;;4899204;29;20052;-75
2023/09/29 02:03:11;;;;;;;14.05;4.53;;;15.60;99.90;;;;;;4899274;29;20497;-76
2023/09/29 02:05:57;;;;;;;16.92;4.35;;;15.60;99.90;;;;;;4900549;28;20059;-76
2023/09/29 02:08:43;;;;;;;21.35;4.28;;;15.60;99.90;;;;;;4899716;29;20048;-75
2023/09/29 02:11:29;;;;;;;22.65;5.80;;;15.60;99.90;;;;;;4899679;29;20493;-77
2023/09/29 02:14:15;;;;;;;28.65;5.82;;;15.70;99.90;;;;;;4881914;29;20069;-76
2023/09/29 02:17:02;;;;;;;22.17;5.32;;;15.70;99.90;;;;;;4899878;29;20084;-78
2023/09/29 02:19:48;;;;;;;25.88;6.18;;;15.70;99.90;;;;;;4882324;29;20387;-78
2023/09/29 02:22:34;;;;;;;17.15;4.75;;;15.70;99.90;;;;;;4897401;29;20063;-74
2023/09/29 02:25:25;;;;;;;22.50;5.03;;;15.70;99.90;;;;;;4898428;29;20143;-75
2023/09/29 02:28:11;;;;;;;19.33;4.53;;;15.70;99.90;;;;;;4898147;29;20049;-79
2023/09/29 02:31:03;;;;;;;15.68;4.45;;;15.70;99.90;;;;;;4882046;29;20052;-76
2023/09/29 02:33:50;;;;;;;20.17;4.93;;;15.70;99.90;;;;;;4869010;29;20057;-78
2023/09/29 02:36:36;;;;;;;13.75;4.47;;;15.70;99.90;;;;;;4899017;29;20076;-74
2023/09/29 02:39:22;;;;;;;21.27;4.75;;;15.80;99.90;;;;;;4881625;29;20130;-74
2023/09/29 02:42:08;;;;;;;19.55;4.72;;;15.70;99.90;;;;;;4882060;29;20056;-74
2023/09/29 02:44:55;;;;;;;18.70;5.55;;;15.80;99.90;;;;;;4897945;29;20060;-74
2023/09/29 02:47:42;;;;;;;19.30;5.53;;;15.80;99.90;;;;;;4882030;29;20056;-75
2023/09/29 02:50:28;;;;;;;16.92;4.97;;;15.80;99.90;;;;;;4897770;29;20060;-75
2023/09/29 02:53:14;;;;;;;18.98;5.20;;;15.80;99.90;;;;;;4898357;29;20052;-79
2023/09/29 02:56:00;;;;;;;18.52;5.38;;;15.80;99.90;;;;;;4881729;29;20501;-73
2023/09/29 02:58:47;;;;;;;19.13;5.50;;;15.80;99.90;;;;;;4881608;29;20064;-75
2023/09/29 03:01:34;;;;;;;19.80;5.00;;;15.80;99.90;;;;;;4898275;29;20052;-75
2023/09/29 03:04:20;;;;;;;18.83;4.88;;;15.80;99.90;;;;;;4897125;29;20568;-75
2023/09/29 03:07:09;;;;;;;19.17;4.80;;;15.80;99.90;;;;;;4897032;29;20501;-77
2023/09/29 03:09:55;;;;;;;26.40;6.78;;;15.80;99.90;;;;;;4896829;29;20561;-75
2023/09/29 03:12:44;;;;;;;25.27;4.30;;;15.80;99.90;;;;;;4884888;29;20053;-75
2023/09/29 03:15:30;;;;;;;23.15;4.43;;;15.80;99.90;;;;;;4880570;29;20081;-75
2023/09/29 03:18:16;;;;;;;20.15;4.55;;;15.80;99.90;;;;;;4897656;29;20092;-75
2023/09/29 03:21:07;;;;;;;17.83;5.47;;;15.80;99.90;;;;;;4884493;29;20112;-76
2023/09/29 03:23:53;;;;;;;15.60;4.88;;;15.80;99.90;;;;;;4896860;29;20084;-74
2023/09/29 03:26:39;;;;;;;21.45;5.20;;;15.80;99.90;;;;;;4881084;29;20139;-75
2023/09/29 03:29:25;;;;;;;13.55;4.78;;;15.80;99.90;;;;;;4896605;29;20112;-79
2023/09/29 03:32:11;;;;;;;22.83;5.68;;;15.80;99.90;;;;;;4897539;29;20414;-79
2023/09/29 03:34:57;;;;;;;21.95;5.10;;;15.80;99.90;;;;;;4897811;29;20060;-77
2023/09/29 03:37:44;;;;;;;14.70;5.63;;;15.80;99.90;;;;;;4898490;29;20045;-76
2023/09/29 03:40:31;;;;;;;15.75;4.70;;;15.80;99.90;;;;;;4897020;29;20407;-75
2023/09/29 03:43:18;;;;;;;19.48;5.85;;;15.80;99.90;;;;;;4896358;29;20064;-75
2023/09/29 03:46:04;;;;;;;21.70;5.40;;;15.80;99.90;;;;;;4896491;29;20056;-76
2023/09/29 03:48:50;;;;;;;16.02;5.90;;;15.80;99.90;;;;;;4880513;29;20390;-75
2023/09/29 03:51:36;;;;;;;19.27;5.75;;;15.80;99.90;;;;;;4883922;29;20465;-74
2023/09/29 03:54:24;;;;;;;19.48;6.13;;;15.90;99.90;;;;;;4896665;29;20060;-75
2023/09/29 03:57:10;;;;;;;19.23;5.28;;;15.90;99.90;;;;;;4898049;29;20055;-76
2023/09/29 03:59:56;;;;;;;18.63;4.90;;;15.90;99.90;;;;;;4880221;29;20063;-79
2023/09/29 04:02:42;;;;;;;19.02;5.65;;;15.90;99.90;;;;;;4897255;29;20151;-78
2023/09/29 04:05:28;;;;;;;21.67;4.82;;;16.00;99.90;;;;;;4896836;29;20060;-76
2023/09/29 04:08:14;;;;;;;13.05;4.28;;;16.00;99.90;;;;;;4897164;29;20053;-76
2023/09/29 04:11:00;;;;;;;17.95;4.90;;;16.00;99.90;;;;;;4896634;29;20464;-75
2023/09/29 04:13:46;;;;;;;18.33;5.05;;;16.00;99.90;;;;;;4879615;29;20057;-75
2023/09/29 04:16:33;;;;;;;19.33;4.72;;;16.00;99.90;;;;;;4896255;29;20494;-75
2023/09/29 04:19:19;;;;;;;17.42;5.40;;;16.10;99.90;;;;;;4897240;29;20113;-74
2023/09/29 04:22:05;;;;;;;17.05;4.72;;;16.10;99.90;;;;;;4896190;29;20147;-76
2023/09/29 04:24:52;;;;;;;12.32;4.60;;;16.10;99.90;;;;;;4879336;29;20098;-75
2023/09/29 04:27:39;;;;;;;13.15;4.07;;;16.10;99.90;;;;;;4879461;29;20057;-80
2023/09/29 04:30:25;;;;;;;13.80;4.20;;;16.20;99.90;;;;;;4895690;29;20067;-75
2023/09/29 04:33:11;;;;;;;12.73;4.40;;;16.20;99.90;;;;;;4882331;29;20413;-76
2023/09/29 04:35:57;;;;;;;21.10;6.35;;;16.20;99.90;;;;;;4897093;29;20481;-77
2023/09/29 04:38:43;;;;;;;18.27;4.78;;;16.20;99.90;;;;;;4895540;29;20079;-79
2023/09/29 04:41:29;;;;;;;20.75;5.28;;;16.20;99.90;;;;;;4896338;29;20048;-74
2023/09/29 04:44:15;;;;;;;18.65;5.38;;;16.30;99.90;;;;;;4883359;29;20139;-75
2023/09/29 04:47:01;;;;;;;15.00;5.00;;;16.30;99.90;;;;;;4883298;29;20060;-75
2023/09/29 04:49:49;;;;;;;16.27;4.43;;;16.30;99.90;;;;;;4897289;29;20122;-80
2023/09/29 04:52:35;;;;;;;26.88;5.55;;;16.30;99.90;;;;;;4879145;29;20064;-79
2023/09/29 04:55:21;;;;;;;15.85;5.13;;;16.30;99.90;;;;;;4895947;29;20056;-75
2023/09/29 04:58:09;;;;;;;17.92;4.97;;;16.40;99.90;;;;;;4896174;29;20055;-80
2023/09/29 05:00:55;;;;;;;18.98;5.53;;;16.40;99.90;;;;;;4878021;29;20071;-75
2023/09/29 05:03:41;;;;;;;15.15;4.82;;;16.50;99.90;;;;;;4868295;29;20913;-76
2023/09/29 05:06:28;;;;;;;27.25;4.88;;;16.50;99.90;;;;;;4897012;29;20052;-78
2023/09/29 05:09:15;;;;;;;22.98;4.40;;;16.50;99.90;;;;;;4879303;29;20069;-76
2023/09/29 05:12:01;;;;;;;22.75;5.40;;;16.40;99.90;;;;;;4879425;29;20044;-75
2023/09/29 05:14:47;;;;;;;19.77;4.38;;;16.40;99.90;;;;;;4896411;29;20096;-74
2023/09/29 05:17:34;;;;;;;15.60;5.07;;;16.30;99.90;;;;;;4896906;29;20052;-76
2023/09/29 05:20:20;;;;;;;20.15;4.45;;;16.30;99.90;;;;;;4896328;29;20140;-77
2023/09/29 05:23:06;;;;;;;16.33;4.82;;;16.30;99.90;;;;;;4896099;29;20112;-81
2023/09/29 05:25:52;;;;;;;21.13;4.90;;;16.20;99.90;;;;;;4894896;29;20119;-78
2023/09/29 05:28:38;;;;;;;18.55;4.75;;;16.20;99.90;;;;;;4882793;29;20069;-77
2023/09/29 05:31:24;;;;;;;14.63;4.38;;;16.30;99.90;;;;;;4878899;29;20857;-75
2023/09/29 05:34:10;;;;;;;19.90;4.72;;;16.20;99.90;;;;;;4896490;29;20068;-80
2023/09/29 05:36:56;;;;;;;23.63;4.72;;;16.20;99.90;;;;;;4866182;29;20122;-79
2023/09/29 05:39:43;;;;;;;18.35;5.13;;;16.20;99.90;;;;;;4895040;29;20136;-81
2023/09/29 05:42:30;;;;;;;14.95;4.68;;;16.20;99.90;;;;;;4883386;29;20095;-80
2023/09/29 05:45:16;;;;;;;17.23;4.72;;;16.20;99.90;;;;;;4896809;29;20048;-76
2023/09/29 05:48:03;;;;;;;14.23;4.45;;;16.20;99.90;;;;;;4879586;29;20672;-77
2023/09/29 05:50:50;;;;;;;19.15;4.50;;;16.20;99.90;;;;;;4896843;29;20053;-80
2023/09/29 05:53:36;;;;;;;19.63;5.32;;;16.10;99.90;;;;;;4895088;29;20132;-76
2023/09/29 05:56:22;;;;;;;19.85;5.10;;;16.20;99.90;;;;;;4896481;29;20052;-77
2023/09/29 05:59:09;;;;;;;21.13;6.18;;;16.20;99.90;;;;;;4881013;29;20053;-78
2023/09/29 06:01:56;;;;;;;14.18;5.18;;;16.20;99.90;;;;;;4878321;29;20097;-79
2023/09/29 06:04:42;;;;;;;16.83;4.78;;;16.20;99.90;;;;;;4896027;29;20056;-80
2023/09/29 06:07:28;;;;;;;18.52;5.43;;;16.10;99.90;;;;;;4894926;29;20061;-78
2023/09/29 06:10:14;;;;;;;20.73;5.63;;;16.20;99.90;;;;;;4866840;29;20060;-76
2023/09/29 06:13:00;;;;;;;18.88;4.78;;;16.20;99.90;;;;;;4895586;29;20054;-74
2023/09/29 06:15:46;;;;;;;17.15;4.50;;;16.20;99.90;;;;;;4895408;29;20056;-76
2023/09/29 06:18:32;;;;;;;20.58;5.25;;;16.20;99.90;;;;;;4878735;29;20053;-75
2023/09/29 06:21:18;;;;;;;21.17;6.45;;;16.10;99.90;;;;;;4898768;29;20053;-77
2023/09/29 06:24:04;;;;;;;14.30;4.78;;;16.10;99.90;;;;;;4898829;29;20572;-80
2023/09/29 06:26:50;;;;;;;14.50;4.53;;;16.20;99.90;;;;;;4899013;28;20147;-79
2023/09/29 06:29:38;;;;;;;20.88;4.93;;;16.20;99.90;;;;;;4899008;29;20056;-77
2023/09/29 06:32:25;;;;;;;14.75;4.65;;;16.20;99.90;;;;;;4898954;29;20060;-76
2023/09/29 06:35:12;;;;;;;25.15;5.90;;;16.20;99.90;;;;;;4897797;29;20049;-74
2023/09/29 06:37:58;;;;;;;14.88;5.05;;;16.30;99.90;;;;;;4898660;29;20502;-78
2023/09/29 06:40:45;;;;;;;13.15;4.68;;;16.30;99.90;;;;;;4898028;29;20120;-79
2023/09/29 06:43:31;;;;;;;17.90;5.50;;;16.40;99.90;;;;;;4880725;29;20084;-79
2023/09/29 06:46:17;;;;;;;18.15;5.78;;;16.40;99.90;;;;;;4898012;29;20053;-76
2023/09/29 06:49:03;;;;;;;18.35;5.38;;;16.50;99.90;;;;;;4898837;29;20062;-81
2023/09/29 06:51:49;;;;;;;23.33;6.07;;;16.50;99.90;;;;;;4881054;29;20056;-76
2023/09/29 06:54:35;;;;;;;15.13;4.90;;;16.50;99.90;;;;;;4897985;29;20136;-77
2023/09/29 06:57:22;;;;;;;21.05;5.85;;;16.50;99.90;;;;;;4899143;29;20567;-76
2023/09/29 07:00:09;;;;;;;21.02;6.07;;;16.60;99.90;;;;;;4881086;29;20079;-76
2023/09/29 07:02:55;;;;;;;22.80;5.93;;;16.50;99.90;;;;;;4897490;29;20060;-76
2023/09/29 07:05:41;;;;;;;27.08;6.20;;;16.60;99.90;;;;;;4897546;29;20052;-75
2023/09/29 07:08:27;;;;;;;17.13;5.40;;;16.70;99.90;;;;;;4896370;29;20052;-75
2023/09/29 07:11:13;;;;;;;18.50;4.82;;;16.70;99.90;;;;;;4898040;29;20805;-75
2023/09/29 07:14:00;;;;;;;19.75;5.63;;;16.80;99.90;;;;;;4898603;29;20063;-79
2023/09/29 07:16:49;;;;;;;14.13;5.45;;;16.80;99.90;;;;;;4897632;29;20048;-78
2023/09/29 07:19:35;;;;;;;13.27;4.72;;;16.90;99.90;;;;;;4896728;29;20060;-76
2023/09/29 07:22:21;;;;;;;15.27;5.18;;;16.90;99.90;;;;;;4897896;29;20057;-77
2023/09/29 07:25:08;;;;;;;14.82;5.38;;;16.90;99.90;;;;;;4881050;29;20109;-77
2023/09/29 07:27:54;;;;;;;12.38;4.57;;;17.00;99.90;;;;;;4899034;28;20055;-76
2023/09/29 07:30:44;;;;;;;17.58;5.40;;;17.10;99.90;;;;;;4880452;29;20072;-81
2023/09/29 07:33:30;;;;;;;14.52;4.53;;;17.20;99.90;;;;;;4867650;29;20417;-75
2023/09/29 07:36:16;;;;;;;11.23;4.97;;;17.20;99.90;;;;;;4896876;29;20056;-76
2023/09/29 07:39:02;;;;;;;16.33;5.38;;;17.30;99.90;;;;;;4880558;29;20091;-75
2023/09/29 07:41:49;;;;;;;12.75;4.80;;;17.30;99.90;;;;;;4897974;29;20041;-77
2023/09/29 07:44:35;;;;;;;15.50;4.47;;;17.40;99.90;;;;;;4879746;29;20135;-76
2023/09/29 07:47:21;;;;;;;13.73;4.65;;;17.40;99.90;;;;;;4896538;29;20501;-75
2023/09/29 07:50:08;;;;;;;15.20;4.97;;;17.60;99.90;;;;;;4897956;29;20074;-76
2023/09/29 07:52:54;;;;;;;15.35;4.93;;;17.70;99.90;;;;;;4897104;29;20508;-77
2023/09/29 07:55:40;;;;;;;11.48;4.82;;;17.80;99.90;;;;;;4880413;29;20175;-76
2023/09/29 07:58:26;;;;;;;11.35;4.75;;;17.80;99.90;;;;;;4897757;29;20055;-76
2023/09/29 08:01:12;;;;;;;16.58;5.53;;;17.90;99.90;;;;;;4896966;29;20051;-75
2023/09/29 08:03:58;;;;;;;13.18;4.82;;;18.00;99.90;;;;;;4897179;29;20466;-80
2023/09/29 08:06:45;;;;;;;10.02;4.50;;;18.00;99.90;;;;;;4896959;29;20062;-81
2023/09/29 08:09:31;;;;;;;11.93;4.65;;;18.10;99.90;;;;;;4879965;29;20059;-79
2023/09/29 08:12:17;;;;;;;12.20;4.57;;;18.10;99.90;;;;;;4896573;29;20048;-75
2023/09/29 08:15:05;;;;;;;11.73;4.60;;;18.10;99.90;;;;;;4898513;28;20055;-75
2023/09/29 08:17:51;;;;;;;10.43;3.70;;;18.10;99.90;;;;;;4896604;29;20067;-75
2023/09/29 08:20:38;;;;;;;15.57;5.80;;;18.30;99.90;;;;;;5421242;23;20059;-82
2023/09/29 08:23:23;;;;;;;9.73;4.13;;;18.30;99.90;;;;;;4956073;28;20047;-77
2023/09/29 08:26:10;;;;;;;14.68;5.30;;;18.40;99.90;;;;;;4955868;28;20059;-86
2023/09/29 08:28:57;;;;;;;14.75;4.47;;;18.50;99.90;;;;;;4955036;28;20565;-78
2023/09/29 08:31:44;;;;;;;9.85;4.00;;;18.70;99.90;;;;;;4955046;28;20058;-77
2023/09/29 08:34:31;;;;;;;13.07;4.57;;;18.70;99.90;;;;;;4972691;28;20074;-73
2023/09/29 08:37:17;;;;;;;9.05;4.97;;;18.80;99.90;;;;;;4955915;28;20047;-81
2023/09/29 08:40:04;;;;;;;12.75;4.57;;;18.80;99.90;;;;;;4955287;28;20399;-73
2023/09/29 08:42:50;;;;;;;10.55;4.40;;;18.90;99.90;;;;;;4953798;28;20506;-76
2023/09/29 08:45:45;;;;;;;11.57;4.10;;;18.90;99.90;;;;;;4955467;28;20102;-78
2023/09/29 08:48:35;;;;;;;19.77;5.47;;;19.00;99.90;;;;;;4955754;28;20513;-81
2023/09/29 08:51:22;;;;;;;10.68;4.25;;;19.00;99.90;;;;;;4955907;28;20513;-76
2023/09/29 08:54:11;;;;;;;13.90;5.80;;;19.10;99.90;;;;;;4972693;28;20117;-79
2023/09/29 08:56:58;;;;;;;11.55;4.63;;;19.10;99.90;;;;;;4955499;28;20043;-74
2023/09/29 08:59:46;;;;;;;10.60;4.55;;;19.10;99.90;;;;;;4955579;28;20430;-78
2023/09/29 09:02:32;;;;;;;13.95;5.55;;;19.10;99.90;;;;;;4954219;28;20145;-74
2023/09/29 09:05:20;;;;;;;11.27;4.72;;;19.10;99.90;;;;;;4955371;28;20042;-88
2023/09/29 09:08:06;;;;;;;15.55;5.05;;;19.20;99.90;;;;;;4942131;28;20058;-83
2023/09/29 09:11:00;;;;;;;12.95;5.00;;;19.20;99.90;;;;;;4941537;28;20058;-79
2023/09/29 09:13:58;;;;;;;14.40;4.82;;;19.20;99.90;;;;;;4941842;28;20141;-87
2023/09/29 09:16:45;;;;;;;14.32;6.68;;;19.40;99.90;;;;;;4955263;28;20514;-83
2023/09/29 09:19:31;;;;;;;11.45;4.97;;;19.50;99.90;;;;;;4955292;28;20380;-83
2023/09/29 09:22:32;;;;;;;14.55;5.15;;;19.60;99.90;;;;;;4923244;29;20530;-83
2023/09/29 09:25:18;;;;;;;10.82;4.85;;;19.80;99.90;;;;;;4922233;29;20055;-87
2023/09/29 09:28:05;;;;;;;10.38;5.03;;;20.00;99.90;;;;;;4936315;29;20377;-88
2023/09/29 09:31:03;;;;;;;18.50;5.88;;;20.10;99.90;;;;;;4936254;29;20055;-81
2023/09/29 09:33:53;;;;;;;13.40;5.15;;;20.20;99.90;;;;;;4953359;28;20105;-85
2023/09/29 09:36:53;;;;;;;13.07;5.63;;;20.30;99.90;;;;;;4936102;29;20220;-77
2023/09/29 09:39:42;;;;;;;10.68;4.68;;;20.40;99.90;;;;;;4955653;29;20135;-83
2023/09/29 09:42:28;;;;;;;11.45;4.88;;;20.50;99.90;;;;;;4935679;29;20055;-86
2023/09/29 09:45:14;;;;;;;13.05;5.38;;;20.50;99.90;;;;;;4940400;29;20066;-87
2023/09/29 09:48:04;;;;;;;11.55;4.53;;;20.60;99.90;;;;;;4938917;29;20229;-85
2023/09/29 09:50:56;;;;;;;12.25;4.57;;;20.70;99.90;;;;;;4924434;29;20130;-87
2023/09/29 09:53:42;;;;;;;15.77;5.30;;;20.80;99.90;;;;;;4935316;29;20098;-83
2023/09/29 09:56:38;;;;;;;11.00;4.72;;;20.90;99.90;;;;;;4938261;29;20594;-83
2023/09/29 09:59:27;;;;;;;11.52;3.63;;;21.10;99.90;;;;;;4939475;29;20137;-84
2023/09/29 10:02:14;;;;;;;9.30;3.70;;;21.40;99.90;;;;;;4926208;29;20047;-88
2023/09/29 10:05:00;;;;;;;11.73;3.67;;;21.50;99.90;;;;;;4938450;29;20090;-81
2023/09/29 10:07:47;;;;;;;11.50;3.92;;;21.60;99.90;;;;;;4939565;29;20066;-79
2023/09/29 10:10:34;;;;;;;8.43;3.40;;;21.70;99.90;;;;;;4925268;29;20062;-84
2023/09/29 10:13:20;;;;;;;8.57;3.78;;;21.50;99.90;;;;;;4938792;29;20057;-88
2023/09/29 10:16:07;;;;;;;9.90;3.10;;;21.50;99.90;;;;;;4954592;29;20083;-87
2023/09/29 10:19:05;;;;;;;9.90;3.17;;;21.70;99.90;;;;;;4954644;29;20051;-82
2023/09/29 10:21:53;;;;;;;8.18;3.53;;;21.70;99.90;;;;;;4938285;29;20134;-87
2023/09/29 10:24:39;;;;;;;6.78;2.85;;;21.60;99.90;;;;;;4938704;29;20150;-89
2023/09/29 10:27:31;;;;;;;6.50;2.83;;;21.30;99.90;;;;;;4938462;29;20114;-78
2023/09/29 10:30:17;;;;;;;12.57;3.80;;;21.10;99.90;;;;;;4938902;29;20066;-83
2023/09/29 10:33:11;;;;;;;11.30;4.85;;;20.90;99.90;;;;;;4938353;29;20488;-84
2023/09/29 10:35:57;;;;;;;9.32;3.80;;;20.80;99.90;;;;;;4925613;29;20064;-85
2023/09/29 10:38:43;;;;;;;10.10;3.63;;;20.70;99.90;;;;;;4955296;29;20113;-82
2023/09/29 10:41:31;;;;;;;7.68;3.13;;;20.70;99.90;;;;;;4954250;29;20054;-89
2023/09/29 10:44:17;;;;;;;7.60;3.53;;;20.70;99.90;;;;;;4924985;29;20069;-80
2023/09/29 10:47:05;;;;;;;9.27;3.53;;;20.70;99.90;;;;;;4953958;29;20106;-88
2023/09/29 10:49:51;;;;;;;12.68;4.00;;;20.70;99.90;;;;;;4924832;29;20094;-88
2023/09/29 10:52:37;;;;;;;14.70;3.67;;;20.70;99.90;;;;;;4927874;29;20047;-86
2023/09/29 10:55:23;;;;;;;12.25;3.25;;;20.60;99.90;;;;;;4924563;29;20055;-81
2023/09/29 10:58:14;;;;;;;9.05;3.70;;;20.50;99.90;;;;;;4954008;29;20058;-82
2023/09/29 11:01:00;;;;;;;11.50;3.55;;;20.40;99.90;;;;;;4955916;28;20130;-87
2023/09/29 11:03:46;;;;;;;12.00;2.97;;;20.30;99.90;;;;;;4938742;29;20412;-88
2023/09/29 11:06:40;;;;;;;12.43;4.68;;;20.20;99.90;;;;;;4953082;28;20097;-80
2023/09/29 11:09:31;;;;;;;14.27;4.22;;;20.20;99.90;;;;;;4924204;29;20047;-82
2023/09/29 11:12:18;;;;;;;12.65;3.83;;;20.10;99.90;;;;;;4924422;29;20463;-82
2023/09/29 11:15:07;;;;;;;9.88;4.18;;;20.00;99.90;;;;;;4938075;29;20059;-80
2023/09/29 11:17:54;;;;;;;13.25;3.80;;;20.00;99.90;;;;;;4955095;29;20059;-80
2023/09/29 11:20:52;;;;;;;9.32;2.35;;;19.80;99.90;;;;;;4937135;29;20133;-85
2023/09/29 11:23:45;;;;;;;5.28;0.95;;;19.70;99.90;;;;;;4938001;29;20050;-83
2023/09/29 11:26:31;;;;;;;7.00;1.27;;;19.50;99.90;;;;;;4937779;29;20114;-79
2023/09/29 11:29:24;;;;;;;3.75;0.82;;;19.40;99.90;;;;;;4938103;29;20051;-80
2023/09/29 11:32:11;;;;;;;5.25;1.42;;;19.30;99.90;;;;;;4938436;29;20066;-79
2023/09/29 11:34:58;;;;;;;5.20;1.23;;;19.30;99.90;;;;;;4937645;29;20491;-76
2023/09/29 11:37:44;;;;;;;5.68;1.20;;;19.30;99.90;;;;;;4937669;29;20055;-76
2023/09/29 11:40:30;;;;;;;2.78;0.85;;;19.30;99.90;;;;;;4943030;29;20051;-77
2023/09/29 11:43:17;;;;;;;4.68;0.90;;;19.40;99.90;;;;;;4950509;29;20075;-84
2023/09/29 11:46:03;;;;;;;7.90;1.73;;;19.40;99.90;;;;;;4948928;29;20086;-83
2023/09/29 11:48:49;;;;;;;5.45;0.90;;;19.30;99.90;;;;;;4954339;29;20054;-76
2023/09/29 11:51:36;;;;;;;3.83;1.05;;;19.30;99.90;;;;;;4970754;29;20503;-84
2023/09/29 11:54:23;;;;;;;4.50;1.00;;;19.30;99.90;;;;;;4937873;29;20408;-80
2023/09/29 11:57:08;;;;;;;7.78;1.38;;;19.20;99.90;;;;;;4923643;29;20423;-74
2023/09/29 11:59:54;;;;;;;8.10;1.38;;;19.10;99.90;;;;;;4937358;29;20051;-82
2023/09/29 12:02:40;;;;;;;11.02;1.35;;;19.00;99.90;;;;;;4936692;29;20575;-74
2023/09/29 12:05:26;;;;;;;8.00;1.23;;;19.00;99.90;;;;;;4954222;28;20142;-74
2023/09/29 12:08:12;;;;;;;8.20;1.77;;;18.90;99.90;;;;;;4953852;29;20522;-75
2023/09/29 12:10:59;;;;;;;7.90;1.50;;;18.80;99.90;;;;;;4952592;29;20055;-81
2023/09/29 12:13:45;;;;;;;12.82;1.98;;;18.70;99.90;;;;;;4936734;29;20055;-79
2023/09/29 12:16:31;;;;;;;9.00;2.05;;;18.60;99.90;;;;;;4952352;28;20496;-81
2023/09/29 12:19:17;;;;;;;10.98;1.90;;;18.60;99.90;;;;;;4923295;29;20488;-79
2023/09/29 12:22:03;;;;;;;9.07;2.22;;;18.50;99.90;;;;;;4910842;29;20113;-74
2023/09/29 12:24:49;;;;;;;6.55;1.10;;;18.40;99.90;;;;;;4953274;29;20372;-74
2023/09/29 12:27:35;;;;;;;9.05;1.48;;;18.30;99.90;;;;;;4936424;29;20066;-74
2023/09/29 12:30:22;;;;;;;6.13;0.90;;;18.20;99.90;;;;;;4923692;29;20111;-74
2023/09/29 12:33:08;;;;;;;9.95;1.90;;;18.10;99.90;;;;;;4935825;29;20062;-75
2023/09/29 12:35:54;;;;;;;9.15;1.00;;;17.90;99.90;;;;;;4936659;29;20206;-73
2023/09/29 12:38:41;;;;;;;7.35;2.42;;;17.90;99.90;;;;;;4952051;29;20043;-74
2023/09/29 12:41:27;;;;;;;12.77;1.25;;;17.80;99.90;;;;;;4936692;29;20065;-76
2023/09/29 12:44:13;;;;;;;7.47;1.10;;;17.80;99.90;;;;;;4936767;29;20378;-76
2023/09/29 12:46:59;;;;;;;10.25;1.15;;;17.80;99.90;;;;;;4923319;29;20229;-78
2023/09/29 12:49:45;;;;;;;7.18;1.45;;;17.80;99.90;;;;;;4951895;29;20085;-73
2023/09/29 12:52:31;;;;;;;6.88;1.25;;;17.80;99.90;;;;;;4953135;29;20055;-76
2023/09/29 12:55:18;;;;;;;4.35;1.00;;;17.70;99.90;;;;;;4935773;29;20087;-75
2023/09/29 12:58:05;;;;;;;6.35;1.10;;;17.80;99.90;;;;;;4936498;29;20664;-85
2023/09/29 13:00:51;;;;;;;10.65;1.50;;;17.90;99.90;;;;;;4936148;29;20059;-76
2023/09/29 13:03:37;;;;;;;12.52;1.52;;;17.80;99.90;;;;;;4953503;28;20055;-78
2023/09/29 13:06:23;;;;;;;9.68;1.33;;;17.90;99.90;;;;;;4953613;28;20047;-75
2023/09/29 13:09:11;;;;;;;7.38;1.42;;;17.90;99.90;;;;;;4951731;29;20415;-73
2023/09/29 13:11:58;;;;;;;13.85;2.03;;;18.00;99.90;;;;;;4935966;29;20059;-74
2023/09/29 13:14:44;;;;;;;7.95;1.30;;;18.00;99.90;;;;;;4936282;29;20142;-76
2023/09/29 13:17:30;;;;;;;8.52;1.50;;;18.60;99.90;;;;;;4951566;29;20051;-75
2023/09/29 13:20:16;;;;;;;7.40;1.35;;;20.10;99.90;;;;;;4951298;28;20065;-75
2023/09/29 13:23:02;;;;;;;10.32;2.10;;;21.00;99.90;;;;;;4935973;29;20510;-79
2023/09/29 13:25:49;;;;;;;7.68;1.35;;;21.50;99.90;;;;;;4953461;28;20452;-80
2023/09/29 13:28:35;;;;;;;9.30;2.80;;;21.80;99.90;;;;;;4936464;29;20054;-80
2023/09/29 13:31:21;;;;;;;8.13;1.90;;;22.20;99.90;;;;;;4926792;29;20424;-89
2023/09/29 13:34:07;;;;;;;9.55;2.58;;;22.50;99.90;;;;;;4939116;29;20047;-79
2023/09/29 13:36:53;;;;;;;10.32;2.13;;;21.90;99.90;;;;;;4926291;29;20123;-85
2023/09/29 13:39:39;;;;;;;15.27;2.30;;;21.50;99.90;;;;;;4939228;29;20142;-88
2023/09/29 13:42:25;;;;;;;10.60;2.25;;;21.00;99.90;;;;;;4939879;29;20055;-87
2023/09/29 13:45:12;;;;;;;10.40;1.77;;;21.10;99.90;;;;;;4939458;29;20471;-85
2023/09/29 13:47:58;;;;;;;11.25;2.47;;;22.00;99.90;;;;;;4938865;29;20605;-82
2023/09/29 13:50:44;;;;;;;9.57;2.97;;;23.10;99.90;;;;;;4939440;29;20058;-82
2023/09/29 13:53:30;;;;;;;11.38;2.63;;;23.20;99.90;;;;;;4939621;29;20051;-84
2023/09/29 13:56:16;;;;;;;11.05;2.92;;;23.50;99.90;;;;;;4938772;29;20051;-84
2023/09/29 13:59:02;;;;;;;18.42;3.13;;;23.80;99.90;;;;;;4938700;29;20149;-87
2023/09/29 14:01:48;;;;;;;10.60;2.58;;;24.00;99.90;;;;;;4939455;29;20496;-86
2023/09/29 14:04:35;;;;;;;11.00;2.75;;;25.10;99.90;;;;;;4939152;29;20055;-78
2023/09/29 14:07:21;;;;;;;10.48;2.35;;;26.00;99.30;;;;;;4926228;29;20063;-84
2023/09/29 14:10:25;;;;;;;12.25;3.20;;;26.00;98.30;;;;;;4956412;29;20054;-74
2023/09/29 14:13:11;;;;;;;12.93;3.35;;;25.30;98.40;;;;;;4954997;29;20082;-76
2023/09/29 14:15:57;;;;;;;9.93;2.97;;;24.00;99.00;;;;;;4956260;29;20093;-75
2023/09/29 14:18:43;;;;;;;12.80;2.83;;;23.10;99.90;;;;;;4939091;29;20055;-77
2023/09/29 14:21:29;;;;;;;11.05;3.60;;;22.80;99.90;;;;;;4955073;28;20070;-77